createdAt,value
2022-11-27T00:00:24.872Z,93.38
2022-11-27T00:01:25.419Z,93.38
2022-11-27T00:02:25.162Z,92.93
2022-11-27T00:03:25.313Z,92.93
2022-11-27T00:04:25.014Z,92.82
2022-11-27T00:05:24.950Z,92.72
2022-11-27T00:06:24.975Z,92.72
2022-11-27T00:07:24.876Z,92.82
2022-11-27T00:08:24.983Z,93.03
2022-11-27T00:09:24.957Z,93.07
2022-11-27T00:10:25.124Z,93.03
2022-11-27T00:11:24.837Z,93.18
2022-11-27T00:12:25.316Z,93.38
2022-11-27T00:13:24.850Z,93.28
2022-11-27T00:14:25.009Z,93.28
2022-11-27T00:15:25.018Z,93.18
2022-11-27T00:16:24.839Z,93.28
2022-11-27T00:17:24.938Z,93.38
2022-11-27T00:18:24.934Z,93.13
2022-11-27T00:19:24.871Z,92.97
2022-11-27T00:20:29.611Z,92.97
2022-11-27T00:21:24.846Z,92.86
2022-11-27T00:22:24.797Z,92.97
2022-11-27T00:23:24.676Z,93.07
2022-11-27T00:24:24.876Z,93.07
2022-11-27T00:25:24.691Z,93.28
2022-11-27T00:26:24.653Z,92.97
2022-11-27T00:27:24.600Z,92.82
2022-11-27T00:28:24.587Z,92.97
2022-11-27T00:29:24.634Z,93.18
2022-11-27T00:30:24.489Z,93.07
2022-11-27T00:31:24.585Z,93.18
2022-11-27T00:32:24.649Z,93.18
2022-11-27T00:33:24.564Z,93.28
2022-11-27T00:34:24.470Z,93.69
2022-11-27T00:35:24.547Z,93.49
2022-11-27T00:36:25.004Z,93.28
2022-11-27T00:37:24.734Z,93.49
2022-11-27T00:38:24.433Z,93.38
2022-11-27T00:39:24.575Z,93.38
2022-11-27T00:40:24.395Z,93.49
2022-11-27T00:41:24.374Z,93.73
2022-11-27T00:42:24.418Z,93.38
2022-11-27T00:43:24.308Z,93.28
2022-11-27T00:44:24.415Z,93.28
2022-11-27T00:45:25.957Z,93.28
2022-11-27T00:46:28.444Z,93.53
2022-11-27T00:47:24.446Z,93.59
2022-11-27T00:48:24.655Z,93.73
2022-11-27T00:49:24.353Z,93.63
2022-11-27T00:50:24.458Z,93.49
2022-11-27T00:51:24.337Z,93.38
2022-11-27T00:52:24.287Z,93.38
2022-11-27T00:53:24.378Z,93.43
2022-11-27T00:54:24.487Z,93.18
2022-11-27T00:55:24.402Z,93.07
2022-11-27T00:56:24.184Z,93.18
2022-11-27T00:57:24.208Z,93.32
2022-11-27T00:58:24.272Z,93.43
2022-11-27T00:59:24.149Z,93.43
2022-11-27T01:00:24.131Z,93.53
2022-11-27T01:01:24.179Z,93.53
2022-11-27T01:02:24.324Z,93.53
2022-11-27T01:03:24.134Z,93.63
2022-11-27T01:04:24.071Z,93.63
2022-11-27T01:05:24.190Z,93.73
2022-11-27T01:06:24.098Z,93.73
2022-11-27T01:07:24.106Z,93.73
2022-11-27T01:08:24.131Z,93.63
2022-11-27T01:09:31.690Z,93.32
2022-11-27T01:10:23.936Z,93.01
2022-11-27T01:11:23.904Z,93.12
2022-11-27T01:12:23.894Z,93.01
2022-11-27T01:13:23.895Z,93.01
2022-11-27T01:14:23.870Z,93.22
2022-11-27T01:15:23.856Z,93.32
2022-11-27T01:16:23.868Z,93.22
2022-11-27T01:17:23.842Z,93.32
2022-11-27T01:18:23.815Z,93.32
2022-11-27T01:19:23.994Z,93.32
2022-11-27T01:20:23.800Z,93.32
2022-11-27T01:21:23.777Z,93.43
2022-11-27T01:22:23.776Z,93.43
2022-11-27T01:23:31.545Z,93.43
2022-11-27T01:24:23.773Z,93.22
2022-11-27T01:25:26.966Z,93.12
2022-11-27T01:26:23.864Z,92.80
2022-11-27T01:27:24.036Z,92.80
2022-11-27T01:28:23.697Z,92.91
2022-11-27T01:29:23.717Z,92.91
2022-11-27T01:30:23.679Z,93.12
2022-11-27T01:31:23.793Z,93.12
2022-11-27T01:32:23.849Z,93.12
2022-11-27T01:33:23.647Z,92.91
2022-11-27T01:34:23.771Z,92.80
2022-11-27T01:35:23.652Z,92.60
2022-11-27T01:36:23.708Z,92.60
2022-11-27T01:37:23.834Z,92.70
2022-11-27T01:38:23.621Z,92.91
2022-11-27T01:39:23.844Z,93.01
2022-11-27T01:40:23.690Z,92.91
2022-11-27T01:41:23.629Z,93.01
2022-11-27T01:42:23.595Z,92.91
2022-11-27T01:43:23.712Z,92.91
2022-11-27T01:44:23.568Z,93.05
2022-11-27T01:45:23.481Z,92.95
2022-11-27T01:46:23.594Z,92.80
2022-11-27T01:47:23.532Z,92.60
2022-11-27T01:48:23.645Z,92.60
2022-11-27T01:49:23.431Z,92.70
2022-11-27T01:50:23.483Z,92.70
2022-11-27T01:51:23.483Z,92.60
2022-11-27T01:52:23.537Z,92.85
2022-11-27T01:53:23.464Z,93.05
2022-11-27T01:54:23.509Z,93.05
2022-11-27T01:55:23.429Z,93.16
2022-11-27T01:56:23.425Z,93.16
2022-11-27T01:57:23.439Z,93.37
2022-11-27T01:58:23.404Z,93.47
2022-11-27T01:59:23.522Z,93.47
2022-11-27T02:00:23.402Z,93.37
2022-11-27T02:01:23.523Z,93.37
2022-11-27T02:02:23.497Z,93.37
2022-11-27T02:03:23.519Z,93.47
2022-11-27T02:04:23.331Z,93.47
2022-11-27T02:05:23.304Z,93.16
2022-11-27T02:06:23.328Z,92.85
2022-11-27T02:07:23.328Z,92.74
2022-11-27T02:08:23.335Z,92.85
2022-11-27T02:09:23.255Z,92.95
2022-11-27T02:10:23.454Z,93.16
2022-11-27T02:11:23.155Z,93.05
2022-11-27T02:12:23.202Z,93.10
2022-11-27T02:13:23.321Z,93.30
2022-11-27T02:14:23.154Z,93.16
2022-11-27T02:15:23.175Z,92.95
2022-11-27T02:16:23.162Z,92.85
2022-11-27T02:17:23.164Z,92.64
2022-11-27T02:18:23.296Z,92.54
2022-11-27T02:19:23.115Z,92.74
2022-11-27T02:20:23.033Z,92.95
2022-11-27T02:21:23.083Z,93.05
2022-11-27T02:22:23.013Z,93.20
2022-11-27T02:23:23.014Z,93.30
2022-11-27T02:24:23.025Z,93.51
2022-11-27T02:25:28.109Z,93.51
2022-11-27T02:26:24.016Z,93.72
2022-11-27T02:27:22.999Z,93.62
2022-11-27T02:28:30.642Z,93.20
2022-11-27T02:29:22.887Z,93.20
2022-11-27T02:30:22.890Z,93.20
2022-11-27T02:31:22.908Z,93.10
2022-11-27T02:32:22.875Z,93.30
2022-11-27T02:33:22.831Z,93.20
2022-11-27T02:34:22.812Z,93.20
2022-11-27T02:35:22.833Z,93.20
2022-11-27T02:36:22.796Z,93.10
2022-11-27T02:37:22.773Z,93.10
2022-11-27T02:38:22.796Z,93.30
2022-11-27T02:39:22.747Z,93.30
2022-11-27T02:40:22.737Z,93.20
2022-11-27T02:41:38.218Z,93.10
2022-11-27T02:42:22.898Z,92.99
2022-11-27T02:43:22.929Z,92.89
2022-11-27T02:44:23.085Z,93.10
2022-11-27T02:45:22.989Z,93.14
2022-11-27T02:46:23.022Z,93.14
2022-11-27T02:47:22.733Z,93.35
2022-11-27T02:48:22.947Z,93.35
2022-11-27T02:49:22.755Z,93.45
2022-11-27T02:50:22.657Z,93.55
2022-11-27T02:51:22.687Z,93.55
2022-11-27T02:52:22.850Z,93.70
2022-11-27T02:53:22.866Z,93.66
2022-11-27T02:54:22.643Z,93.55
2022-11-27T02:55:22.708Z,93.24
2022-11-27T02:56:22.792Z,93.04
2022-11-27T02:57:30.060Z,92.93
2022-11-27T02:58:22.511Z,92.72
2022-11-27T02:59:22.490Z,92.83
2022-11-27T03:00:22.469Z,92.83
2022-11-27T03:01:22.528Z,92.93
2022-11-27T03:02:22.518Z,93.04
2022-11-27T03:03:22.448Z,93.14
2022-11-27T03:04:22.428Z,93.24
2022-11-27T03:05:22.438Z,93.24
2022-11-27T03:06:22.422Z,93.14
2022-11-27T03:07:22.411Z,93.24
2022-11-27T03:08:22.393Z,93.24
2022-11-27T03:09:22.382Z,93.04
2022-11-27T03:10:22.342Z,92.93
2022-11-27T03:11:22.322Z,93.04
2022-11-27T03:12:22.314Z,92.93
2022-11-27T03:13:22.303Z,92.83
2022-11-27T03:14:22.292Z,92.83
2022-11-27T03:15:22.283Z,92.72
2022-11-27T03:16:22.350Z,92.42
2022-11-27T03:17:22.233Z,92.32
2022-11-27T03:18:22.250Z,92.42
2022-11-27T03:19:22.244Z,92.42
2022-11-27T03:20:22.233Z,92.72
2022-11-27T03:21:22.183Z,92.72
2022-11-27T03:22:22.173Z,92.52
2022-11-27T03:23:22.165Z,92.11
2022-11-27T03:24:22.157Z,91.59
2022-11-27T03:25:22.146Z,91.59
2022-11-27T03:26:22.134Z,91.69
2022-11-27T03:27:22.157Z,91.49
2022-11-27T03:28:22.122Z,91.59
2022-11-27T03:29:22.086Z,91.49
2022-11-27T03:30:22.093Z,91.59
2022-11-27T03:31:22.119Z,91.90
2022-11-27T03:32:22.043Z,91.69
2022-11-27T03:33:22.045Z,91.69
2022-11-27T03:34:22.036Z,91.69
2022-11-27T03:35:22.015Z,91.90
2022-11-27T03:36:21.996Z,91.49
2022-11-27T03:37:21.981Z,91.17
2022-11-27T03:38:21.996Z,91.28
2022-11-27T03:39:21.946Z,91.28
2022-11-27T03:40:21.934Z,91.28
2022-11-27T03:41:21.925Z,91.28
2022-11-27T03:42:21.927Z,90.97
2022-11-27T03:43:21.908Z,90.83
2022-11-27T03:44:21.904Z,90.62
2022-11-27T03:45:21.867Z,90.62
2022-11-27T03:46:21.922Z,90.77
2022-11-27T03:47:21.912Z,90.62
2022-11-27T03:48:21.908Z,90.62
2022-11-27T03:49:21.817Z,90.52
2022-11-27T03:50:21.878Z,90.41
2022-11-27T03:51:21.800Z,90.31
2022-11-27T03:52:21.803Z,90.00
2022-11-27T03:53:21.823Z,89.89
2022-11-27T03:54:21.781Z,90.10
2022-11-27T03:55:21.740Z,90.31
2022-11-27T03:56:21.740Z,90.31
2022-11-27T03:57:21.731Z,90.20
2022-11-27T03:58:21.689Z,90.00
2022-11-27T03:59:21.717Z,90.20
2022-11-27T04:00:21.692Z,90.31
2022-11-27T04:01:21.720Z,90.41
2022-11-27T04:02:21.707Z,90.10
2022-11-27T04:03:21.621Z,90.20
2022-11-27T04:04:21.724Z,90.10
2022-11-27T04:05:21.603Z,90.00
2022-11-27T04:06:21.600Z,89.79
2022-11-27T04:07:21.644Z,90.00
2022-11-27T04:08:21.591Z,89.89
2022-11-27T04:09:21.584Z,90.10
2022-11-27T04:10:21.559Z,90.20
2022-11-27T04:11:21.543Z,90.10
2022-11-27T04:12:21.542Z,90.10
2022-11-27T04:13:21.511Z,90.20
2022-11-27T04:14:21.485Z,89.89
2022-11-27T04:15:21.480Z,89.79
2022-11-27T04:16:21.545Z,89.79
2022-11-27T04:17:21.455Z,89.48
2022-11-27T04:18:21.453Z,89.59
2022-11-27T04:19:21.427Z,89.13
2022-11-27T04:20:21.423Z,89.03
2022-11-27T04:21:21.405Z,89.23
2022-11-27T04:22:21.424Z,89.34
2022-11-27T04:23:21.383Z,89.44
2022-11-27T04:24:21.359Z,89.03
2022-11-27T04:25:21.347Z,89.03
2022-11-27T04:26:21.334Z,89.34
2022-11-27T04:27:21.311Z,89.03
2022-11-27T04:28:21.324Z,88.82
2022-11-27T04:29:21.306Z,88.92
2022-11-27T04:30:21.280Z,88.61
2022-11-27T04:31:21.303Z,88.61
2022-11-27T04:32:21.255Z,88.61
2022-11-27T04:33:21.235Z,88.82
2022-11-27T04:34:21.242Z,88.61
2022-11-27T04:35:21.225Z,88.51
2022-11-27T04:36:21.215Z,88.61
2022-11-27T04:37:21.193Z,88.31
2022-11-27T04:38:21.182Z,88.51
2022-11-27T04:39:21.166Z,88.61
2022-11-27T04:40:21.161Z,88.51
2022-11-27T04:41:21.128Z,88.41
2022-11-27T04:42:21.130Z,88.26
2022-11-27T04:43:21.112Z,88.31
2022-11-27T04:44:21.170Z,88.16
2022-11-27T04:45:21.068Z,87.74
2022-11-27T04:46:21.106Z,87.74
2022-11-27T04:47:21.076Z,87.54
2022-11-27T04:48:21.067Z,87.74
2022-11-27T04:49:21.031Z,87.74
2022-11-27T04:50:21.036Z,88.16
2022-11-27T04:51:21.011Z,88.06
2022-11-27T04:52:20.988Z,87.74
2022-11-27T04:53:20.997Z,87.54
2022-11-27T04:54:20.980Z,87.74
2022-11-27T04:55:20.958Z,87.85
2022-11-27T04:56:20.934Z,87.65
2022-11-27T04:57:21.004Z,87.74
2022-11-27T04:58:20.927Z,87.85
2022-11-27T04:59:20.912Z,88.16
2022-11-27T05:00:20.898Z,87.65
2022-11-27T05:01:20.944Z,87.74
2022-11-27T05:02:20.864Z,87.95
2022-11-27T05:03:20.941Z,87.74
2022-11-27T05:04:20.832Z,87.02
2022-11-27T05:05:20.832Z,87.34
2022-11-27T05:06:20.832Z,86.78
2022-11-27T05:07:20.853Z,86.88
2022-11-27T05:08:20.780Z,86.78
2022-11-27T05:09:20.781Z,86.68
2022-11-27T05:10:31.745Z,86.68
2022-11-27T05:11:28.243Z,86.68
2022-11-27T05:12:20.736Z,86.78
2022-11-27T05:13:30.436Z,86.98
2022-11-27T05:14:20.720Z,87.54
2022-11-27T05:15:20.723Z,86.82
2022-11-27T05:16:20.752Z,86.47
2022-11-27T05:17:20.658Z,86.47
2022-11-27T05:18:20.693Z,86.88
2022-11-27T05:19:20.651Z,87.13
2022-11-27T05:20:20.673Z,86.71
2022-11-27T05:21:20.718Z,86.68
2022-11-27T05:22:20.632Z,86.68
2022-11-27T05:23:20.580Z,86.47
2022-11-27T05:24:20.587Z,87.13
2022-11-27T05:25:20.582Z,86.88
2022-11-27T05:26:20.608Z,87.02
2022-11-27T05:27:20.561Z,86.82
2022-11-27T05:28:26.251Z,87.13
2022-11-27T05:29:21.511Z,86.92
2022-11-27T05:30:20.518Z,87.02
2022-11-27T05:31:20.530Z,86.57
2022-11-27T05:32:20.491Z,86.78
2022-11-27T05:33:20.489Z,86.71
2022-11-27T05:34:20.496Z,87.29
2022-11-27T05:35:20.454Z,86.78
2022-11-27T05:36:20.430Z,87.13
2022-11-27T05:37:20.412Z,87.02
2022-11-27T05:38:20.406Z,87.34
2022-11-27T05:39:20.396Z,87.23
2022-11-27T05:40:20.402Z,86.92
2022-11-27T05:41:20.415Z,87.13
2022-11-27T05:42:20.357Z,86.82
2022-11-27T05:43:20.324Z,87.13
2022-11-27T05:44:20.306Z,87.13
2022-11-27T05:45:20.343Z,87.13
2022-11-27T05:46:20.354Z,87.23
2022-11-27T05:47:20.307Z,87.23
2022-11-27T05:48:20.288Z,87.13
2022-11-27T05:49:20.274Z,86.61
2022-11-27T05:50:20.260Z,86.78
2022-11-27T05:51:20.277Z,86.88
2022-11-27T05:52:20.252Z,87.13
2022-11-27T05:53:20.206Z,87.02
2022-11-27T05:54:20.185Z,87.23
2022-11-27T05:55:20.213Z,87.44
2022-11-27T05:56:20.152Z,86.92
2022-11-27T05:57:20.187Z,87.13
2022-11-27T05:58:20.146Z,86.92
2022-11-27T05:59:20.117Z,86.51
2022-11-27T06:00:20.100Z,86.51
2022-11-27T06:01:20.090Z,86.41
2022-11-27T06:02:23.778Z,86.78
2022-11-27T06:03:21.141Z,86.82
2022-11-27T06:04:20.160Z,86.78
2022-11-27T06:05:20.127Z,86.57
2022-11-27T06:06:20.021Z,86.61
2022-11-27T06:07:20.145Z,86.71
2022-11-27T06:08:20.006Z,86.36
2022-11-27T06:09:20.044Z,86.16
2022-11-27T06:10:19.993Z,86.05
2022-11-27T06:11:19.956Z,86.36
2022-11-27T06:12:19.949Z,86.36
2022-11-27T06:13:19.930Z,86.78
2022-11-27T06:14:19.943Z,86.26
2022-11-27T06:15:19.938Z,86.36
2022-11-27T06:16:19.949Z,86.16
2022-11-27T06:17:19.927Z,86.26
2022-11-27T06:18:19.923Z,86.47
2022-11-27T06:19:19.860Z,86.57
2022-11-27T06:20:19.845Z,86.68
2022-11-27T06:21:19.986Z,86.88
2022-11-27T06:22:19.820Z,86.36
2022-11-27T06:23:19.793Z,86.68
2022-11-27T06:24:19.898Z,86.68
2022-11-27T06:25:19.770Z,86.05
2022-11-27T06:26:19.777Z,86.26
2022-11-27T06:27:19.811Z,86.57
2022-11-27T06:28:19.738Z,86.36
2022-11-27T06:29:19.722Z,86.05
2022-11-27T06:30:19.731Z,85.54
2022-11-27T06:31:19.774Z,85.54
2022-11-27T06:32:19.713Z,85.64
2022-11-27T06:33:19.744Z,85.33
2022-11-27T06:34:19.661Z,85.33
2022-11-27T06:35:19.669Z,85.44
2022-11-27T06:36:19.644Z,85.39
2022-11-27T06:37:19.616Z,85.60
2022-11-27T06:38:19.634Z,85.71
2022-11-27T06:39:19.574Z,85.64
2022-11-27T06:40:19.583Z,85.39
2022-11-27T06:41:19.730Z,85.71
2022-11-27T06:42:19.565Z,85.81
2022-11-27T06:43:19.540Z,85.81
2022-11-27T06:44:19.536Z,85.39
2022-11-27T06:45:19.515Z,85.39
2022-11-27T06:46:19.548Z,86.02
2022-11-27T06:47:19.515Z,85.81
2022-11-27T06:48:19.540Z,86.02
2022-11-27T06:49:19.457Z,85.71
2022-11-27T06:50:19.458Z,85.39
2022-11-27T06:51:19.438Z,85.71
2022-11-27T06:52:19.460Z,85.19
2022-11-27T06:53:19.418Z,84.99
2022-11-27T06:54:19.441Z,85.19
2022-11-27T06:55:19.387Z,85.19
2022-11-27T06:56:19.375Z,85.39
2022-11-27T06:57:19.376Z,85.30
2022-11-27T06:58:19.404Z,85.81
2022-11-27T06:59:19.344Z,85.30
2022-11-27T07:00:19.353Z,85.60
2022-11-27T07:01:19.354Z,85.30
2022-11-27T07:02:19.337Z,85.09
2022-11-27T07:03:19.289Z,85.50
2022-11-27T07:04:19.296Z,84.99
2022-11-27T07:05:19.243Z,85.09
2022-11-27T07:06:19.273Z,84.88
2022-11-27T07:07:19.288Z,84.88
2022-11-27T07:08:19.228Z,84.64
2022-11-27T07:09:19.256Z,84.53
2022-11-27T07:10:19.228Z,84.43
2022-11-27T07:11:19.176Z,84.64
2022-11-27T07:12:19.150Z,84.22
2022-11-27T07:13:19.173Z,84.12
2022-11-27T07:14:19.149Z,84.33
2022-11-27T07:15:19.180Z,84.74
2022-11-27T07:16:19.211Z,84.33
2022-11-27T07:17:19.103Z,84.74
2022-11-27T07:18:19.087Z,84.33
2022-11-27T07:19:19.123Z,84.22
2022-11-27T07:20:19.060Z,84.12
2022-11-27T07:21:19.057Z,84.01
2022-11-27T07:22:19.035Z,84.33
2022-11-27T07:23:19.133Z,83.87
2022-11-27T07:24:19.002Z,83.87
2022-11-27T07:25:19.043Z,84.08
2022-11-27T07:26:18.976Z,84.29
2022-11-27T07:27:18.984Z,84.49
2022-11-27T07:28:19.402Z,84.39
2022-11-27T07:29:19.005Z,84.49
2022-11-27T07:30:19.005Z,84.19
2022-11-27T07:31:18.957Z,84.29
2022-11-27T07:32:18.905Z,84.39
2022-11-27T07:33:18.914Z,84.08
2022-11-27T07:34:21.689Z,83.87
2022-11-27T07:35:19.901Z,83.56
2022-11-27T07:36:18.852Z,83.67
2022-11-27T07:37:18.875Z,83.56
2022-11-27T07:38:18.916Z,84.08
2022-11-27T07:39:33.798Z,83.87
2022-11-27T07:40:19.793Z,84.08
2022-11-27T07:41:18.806Z,83.77
2022-11-27T07:44:31.690Z,83.67
2022-11-27T07:45:30.075Z,83.47
2022-11-27T07:46:30.041Z,83.63
2022-11-27T07:47:30.018Z,83.56
2022-11-27T07:48:29.998Z,83.47
2022-11-27T07:49:29.983Z,83.12
2022-11-27T07:50:29.960Z,83.12
2022-11-27T07:51:29.971Z,83.12
2022-11-27T07:52:29.938Z,83.63
2022-11-27T07:53:29.949Z,84.05
2022-11-27T07:54:29.921Z,83.22
2022-11-27T07:55:29.922Z,83.01
2022-11-27T07:56:29.894Z,82.91
2022-11-27T07:57:29.882Z,83.53
2022-11-27T07:58:29.882Z,82.70
2022-11-27T07:59:29.900Z,82.91
2022-11-27T08:00:29.858Z,82.50
2022-11-27T08:01:29.928Z,83.12
2022-11-27T08:02:29.813Z,82.70
2022-11-27T08:03:29.814Z,82.15
2022-11-27T08:04:29.851Z,81.95
2022-11-27T08:05:29.796Z,81.84
2022-11-27T08:06:29.761Z,82.35
2022-11-27T08:07:29.802Z,81.53
2022-11-27T08:08:29.763Z,81.84
2022-11-27T08:09:29.761Z,82.35
2022-11-27T08:10:29.726Z,82.56
2022-11-27T08:11:29.727Z,81.95
2022-11-27T08:12:29.692Z,82.46
2022-11-27T08:13:29.702Z,82.25
2022-11-27T08:14:29.672Z,82.42
2022-11-27T08:15:29.656Z,81.81
2022-11-27T08:16:29.703Z,81.91
2022-11-27T08:17:29.634Z,81.81
2022-11-27T08:18:29.637Z,81.70
2022-11-27T08:19:29.629Z,81.19
2022-11-27T08:20:29.594Z,82.11
2022-11-27T08:21:29.584Z,81.70
2022-11-27T08:22:29.595Z,81.60
2022-11-27T08:23:29.584Z,81.35
2022-11-27T08:24:29.565Z,81.05
2022-11-27T08:25:29.541Z,81.05
2022-11-27T08:26:29.515Z,82.18
2022-11-27T08:27:29.511Z,80.74
2022-11-27T08:28:29.486Z,80.94
2022-11-27T08:29:33.860Z,80.74
2022-11-27T08:30:29.467Z,81.35
2022-11-27T08:31:29.527Z,82.04
2022-11-27T08:32:29.447Z,80.53
2022-11-27T08:33:29.456Z,80.08
2022-11-27T08:34:29.425Z,80.60
2022-11-27T08:35:29.437Z,80.49
2022-11-27T08:36:29.397Z,81.01
2022-11-27T08:37:29.409Z,80.08
2022-11-27T08:38:29.369Z,79.98
2022-11-27T08:39:29.396Z,80.08
2022-11-27T08:40:29.344Z,80.60
2022-11-27T08:41:29.341Z,81.62
2022-11-27T08:42:29.329Z,80.19
2022-11-27T08:43:29.309Z,80.29
2022-11-27T08:44:29.292Z,79.77
2022-11-27T08:45:29.351Z,80.29
2022-11-27T08:46:29.279Z,80.60
2022-11-27T08:47:29.287Z,80.60
2022-11-27T08:48:29.260Z,79.77
2022-11-27T08:49:29.253Z,79.98
2022-11-27T08:50:29.224Z,80.77
2022-11-27T08:51:29.240Z,80.66
2022-11-27T08:52:29.207Z,80.35
2022-11-27T08:53:29.274Z,79.12
2022-11-27T08:54:29.172Z,79.33
2022-11-27T08:55:29.162Z,79.12
2022-11-27T08:56:29.181Z,79.33
2022-11-27T08:57:29.167Z,79.43
2022-11-27T08:58:29.135Z,79.94
2022-11-27T08:59:29.128Z,79.84
2022-11-27T09:00:29.162Z,78.71
2022-11-27T09:01:29.193Z,79.43
2022-11-27T09:02:29.076Z,79.43
2022-11-27T09:03:29.064Z,78.92
2022-11-27T09:04:29.146Z,79.33
2022-11-27T09:05:29.036Z,79.53
2022-11-27T09:06:29.023Z,79.53
2022-11-27T09:07:29.086Z,79.74
2022-11-27T09:08:29.031Z,79.84
2022-11-27T09:09:29.025Z,79.33
2022-11-27T09:10:28.976Z,79.53
2022-11-27T09:11:28.974Z,79.74
2022-11-27T09:12:28.955Z,79.02
2022-11-27T09:13:28.944Z,79.02
2022-11-27T09:14:28.925Z,79.53
2022-11-27T09:15:28.978Z,78.71
2022-11-27T09:16:28.939Z,79.43
2022-11-27T09:17:28.909Z,79.22
2022-11-27T09:18:28.905Z,78.71
2022-11-27T09:19:28.867Z,78.20
2022-11-27T09:20:28.852Z,79.02
2022-11-27T09:21:28.860Z,78.27
2022-11-27T09:22:28.855Z,78.78
2022-11-27T09:23:28.829Z,78.06
2022-11-27T09:24:28.816Z,77.85
2022-11-27T09:25:28.793Z,77.75
2022-11-27T09:26:28.836Z,78.16
2022-11-27T09:27:28.777Z,78.06
2022-11-27T09:28:31.689Z,77.34
2022-11-27T09:29:28.740Z,77.44
2022-11-27T09:30:28.755Z,77.44
2022-11-27T09:31:28.795Z,77.71
2022-11-27T09:32:28.751Z,76.68
2022-11-27T09:33:28.692Z,77.71
2022-11-27T09:34:29.779Z,77.40
2022-11-27T09:35:28.752Z,76.89
2022-11-27T09:36:28.672Z,77.00
2022-11-27T09:37:28.641Z,77.20
2022-11-27T09:38:28.630Z,76.28
2022-11-27T09:39:28.651Z,75.87
2022-11-27T09:40:28.608Z,76.45
2022-11-27T09:41:28.611Z,75.83
2022-11-27T09:42:28.592Z,76.75
2022-11-27T09:43:28.567Z,76.45
2022-11-27T09:44:28.582Z,77.37
2022-11-27T09:45:28.598Z,75.83
2022-11-27T09:46:28.526Z,75.93
2022-11-27T09:47:28.552Z,76.75
2022-11-27T09:48:28.492Z,76.75
2022-11-27T09:49:28.495Z,75.42
2022-11-27T09:50:28.473Z,75.42
2022-11-27T09:51:28.465Z,75.83
2022-11-27T09:52:28.464Z,75.83
2022-11-27T09:53:28.477Z,75.52
2022-11-27T09:54:28.447Z,75.01
2022-11-27T09:55:28.430Z,75.01
2022-11-27T09:56:28.421Z,76.14
2022-11-27T09:57:28.383Z,75.83
2022-11-27T09:58:28.407Z,76.34
2022-11-27T09:59:28.375Z,76.00
2022-11-27T10:00:28.346Z,75.69
2022-11-27T10:01:34.921Z,75.59
2022-11-27T10:02:29.438Z,76.10
2022-11-27T10:03:28.401Z,75.59
2022-11-27T10:04:30.448Z,76.00
2022-11-27T10:05:29.287Z,75.28
2022-11-27T10:06:28.284Z,75.79
2022-11-27T10:07:28.295Z,75.59
2022-11-27T10:08:28.253Z,74.46
2022-11-27T10:09:28.276Z,74.98
2022-11-27T10:10:28.215Z,75.08
2022-11-27T10:11:28.220Z,75.18
2022-11-27T10:12:28.178Z,75.59
2022-11-27T10:13:28.183Z,75.90
2022-11-27T10:14:28.170Z,74.98
2022-11-27T10:15:28.168Z,75.90
2022-11-27T10:16:28.204Z,74.98
2022-11-27T10:17:28.115Z,75.49
2022-11-27T10:18:28.119Z,75.24
2022-11-27T10:19:28.100Z,75.28
2022-11-27T10:20:28.075Z,74.77
2022-11-27T10:21:28.077Z,75.90
2022-11-27T10:22:28.069Z,74.98
2022-11-27T10:23:28.051Z,74.87
2022-11-27T10:24:28.052Z,75.49
2022-11-27T10:25:28.030Z,76.27
2022-11-27T10:26:27.993Z,75.04
2022-11-27T10:27:28.022Z,74.73
2022-11-27T10:28:27.965Z,74.94
2022-11-27T10:29:27.953Z,74.12
2022-11-27T10:30:27.943Z,74.26
2022-11-27T10:31:27.987Z,73.95
2022-11-27T10:32:54.111Z,74.57
2022-11-27T10:33:28.949Z,75.15
2022-11-27T10:34:27.872Z,74.32
2022-11-27T10:35:27.884Z,74.66
2022-11-27T10:36:27.883Z,74.43
2022-11-27T10:37:27.844Z,74.84
2022-11-27T10:38:27.824Z,74.73
2022-11-27T10:39:27.834Z,75.76
2022-11-27T10:40:27.803Z,75.45
2022-11-27T10:41:48.185Z,75.24
2022-11-27T10:42:28.806Z,74.46
2022-11-27T10:43:27.777Z,74.63
2022-11-27T10:44:27.746Z,74.57
2022-11-27T10:45:27.766Z,75.08
2022-11-27T10:46:27.808Z,75.69
2022-11-27T10:47:32.282Z,77.13
2022-11-27T10:48:28.709Z,77.03
2022-11-27T10:49:27.686Z,77.54
2022-11-27T10:50:27.688Z,76.92
2022-11-27T10:51:27.658Z,76.51
2022-11-27T10:52:27.647Z,78.09
2022-11-27T10:53:27.676Z,78.39
2022-11-27T10:54:27.913Z,78.81
2022-11-27T10:55:27.609Z,80.14
2022-11-27T10:56:27.608Z,80.35
2022-11-27T10:57:27.587Z,81.10
2022-11-27T10:58:27.576Z,81.00
2022-11-27T10:59:32.847Z,79.66
2022-11-27T11:00:28.586Z,79.56
2022-11-27T11:01:27.566Z,81.41
2022-11-27T11:02:27.598Z,82.13
2022-11-27T11:03:27.525Z,81.62
2022-11-27T11:04:42.759Z,81.71
2022-11-27T11:05:41.370Z,79.97
2022-11-27T11:06:28.630Z,80.18
2022-11-27T11:07:27.503Z,81.10
2022-11-27T11:08:27.453Z,80.69
2022-11-27T11:09:27.441Z,81.20
2022-11-27T11:10:27.411Z,81.62
2022-11-27T11:11:27.417Z,81.10
2022-11-27T11:12:27.371Z,82.43
2022-11-27T11:13:27.417Z,81.20
2022-11-27T11:14:27.351Z,81.55
2022-11-27T11:15:27.353Z,82.99
2022-11-27T11:16:31.935Z,81.24
2022-11-27T11:17:28.478Z,81.82
2022-11-27T11:18:27.303Z,81.10
2022-11-27T11:19:27.312Z,81.62
2022-11-27T11:20:27.309Z,82.33
2022-11-27T11:21:27.260Z,82.23
2022-11-27T11:22:27.256Z,82.95
2022-11-27T11:23:27.232Z,83.05
2022-11-27T11:24:27.235Z,82.64
2022-11-27T11:25:27.221Z,82.43
2022-11-27T11:26:27.208Z,83.26
2022-11-27T11:27:27.185Z,83.67
2022-11-27T11:28:27.215Z,82.75
2022-11-27T11:29:27.185Z,83.77
2022-11-27T11:30:27.136Z,83.15
2022-11-27T11:31:27.191Z,81.82
2022-11-27T11:32:27.117Z,81.82
2022-11-27T11:33:27.114Z,80.90
2022-11-27T11:34:27.136Z,80.35
2022-11-27T11:35:27.086Z,80.14
2022-11-27T11:36:27.079Z,82.09
2022-11-27T11:37:27.080Z,81.48
2022-11-27T11:38:27.042Z,82.60
2022-11-27T11:39:27.049Z,81.88
2022-11-27T11:40:27.039Z,81.78
2022-11-27T11:41:27.028Z,82.50
2022-11-27T11:42:26.997Z,80.96
2022-11-27T11:43:26.998Z,83.01
2022-11-27T11:44:26.971Z,81.68
2022-11-27T11:45:30.002Z,81.41
2022-11-27T11:46:28.041Z,81.78
2022-11-27T11:47:26.960Z,81.88
2022-11-27T11:48:26.931Z,79.83
2022-11-27T11:49:26.933Z,79.73
2022-11-27T11:50:26.907Z,80.14
2022-11-27T11:51:29.430Z,79.93
2022-11-27T11:52:26.893Z,82.50
2022-11-27T11:53:26.883Z,81.78
2022-11-27T11:54:26.891Z,83.53
2022-11-27T11:55:26.827Z,84.34
2022-11-27T11:56:26.842Z,84.96
2022-11-27T11:57:26.804Z,83.39
2022-11-27T11:58:26.812Z,83.90
2022-11-27T11:59:26.777Z,83.69
2022-11-27T12:00:30.796Z,82.05
2022-11-27T12:01:27.935Z,82.26
2022-11-27T12:02:26.799Z,82.05
2022-11-27T12:03:26.724Z,83.90
2022-11-27T12:04:26.747Z,81.64
2022-11-27T12:05:26.714Z,81.02
2022-11-27T12:06:26.727Z,79.90
2022-11-27T12:07:26.708Z,79.18
2022-11-27T12:08:26.663Z,80.41
2022-11-27T12:09:26.634Z,77.44
2022-11-27T12:10:26.659Z,80.37
2022-11-27T12:11:26.625Z,79.80
2022-11-27T12:12:26.595Z,79.04
2022-11-27T12:13:31.659Z,79.18
2022-11-27T12:14:27.615Z,77.71
2022-11-27T12:15:26.566Z,77.81
2022-11-27T12:16:26.690Z,77.71
2022-11-27T12:17:26.536Z,78.22
2022-11-27T12:18:26.534Z,79.45
2022-11-27T12:19:26.516Z,79.55
2022-11-27T12:20:26.498Z,80.27
2022-11-27T12:21:26.488Z,79.24
2022-11-27T12:22:26.519Z,79.55
2022-11-27T12:23:26.459Z,80.95
2022-11-27T12:24:26.474Z,79.52
2022-11-27T12:25:26.428Z,79.41
2022-11-27T12:26:26.418Z,78.70
2022-11-27T12:27:26.411Z,77.98
2022-11-27T12:28:26.400Z,79.93
2022-11-27T12:29:26.376Z,77.87
2022-11-27T12:30:26.416Z,78.90
2022-11-27T12:31:26.409Z,77.87
2022-11-27T12:32:26.381Z,77.16
2022-11-27T12:33:26.323Z,78.25
2022-11-27T12:34:26.322Z,77.84
2022-11-27T12:35:26.299Z,80.30
2022-11-27T12:36:26.290Z,79.17
2022-11-27T12:37:26.279Z,79.79
2022-11-27T12:38:26.291Z,78.25
2022-11-27T12:39:26.248Z,80.40
2022-11-27T12:40:26.257Z,79.17
2022-11-27T12:41:26.224Z,79.79
2022-11-27T12:42:26.193Z,77.84
2022-11-27T12:43:26.203Z,78.05
2022-11-27T12:44:26.191Z,76.34
2022-11-27T12:45:26.211Z,77.77
2022-11-27T12:46:26.222Z,77.67
2022-11-27T12:47:26.128Z,77.36
2022-11-27T12:48:26.164Z,75.93
2022-11-27T12:49:26.094Z,75.11
2022-11-27T12:50:26.106Z,75.62
2022-11-27T12:51:26.082Z,75.52
2022-11-27T12:52:26.057Z,76.14
2022-11-27T12:53:26.036Z,74.49
2022-11-27T12:54:26.060Z,76.14